createdAt,value
2022-09-23T00:01:47.401Z,101913.28
2022-09-23T00:04:14.044Z,101912.59
2022-09-23T00:06:40.560Z,101912.72
2022-09-23T00:09:07.240Z,101915.59
2022-09-23T00:11:33.796Z,101910.34
2022-09-23T00:14:01.827Z,101905.03
2022-09-23T00:16:31.300Z,101898.06
2022-09-23T00:18:58.239Z,101906.22
2022-09-23T00:21:25.163Z,101906.31
2022-09-23T00:23:51.809Z,101903.75
2022-09-23T00:26:21.407Z,101904.78
2022-09-23T00:28:49.227Z,101903.94
2022-09-23T00:31:19.376Z,101899.53
2022-09-23T00:33:46.145Z,101893.38
2022-09-23T00:36:15.077Z,101898.03
2022-09-23T00:38:42.156Z,101891.88
2022-09-23T00:41:08.800Z,101883.03
2022-09-23T00:43:40.303Z,101887.66
2022-09-23T00:46:09.022Z,101889.56
2022-09-23T00:48:39.638Z,101891.59
2022-09-23T00:51:09.095Z,101895.25
2022-09-23T00:53:36.027Z,101897.19
2022-09-23T00:56:05.980Z,101891.91
2022-09-23T00:58:36.204Z,101892.13
2022-09-23T01:01:04.040Z,101887.81
2022-09-23T01:03:31.063Z,101889.81
2022-09-23T01:05:59.233Z,101884.66
2022-09-23T01:08:27.618Z,101882.06
2022-09-23T01:11:02.866Z,101876.81
2022-09-23T01:13:35.893Z,101879.50
2022-09-23T01:16:08.405Z,101880.44
2022-09-23T01:18:42.416Z,101867.09
2022-09-23T01:21:23.460Z,101878.84
2022-09-23T01:24:25.560Z,101870.00
2022-09-23T01:27:01.491Z,101871.81
2022-09-23T01:30:06.705Z,101866.66
2022-09-23T01:32:43.103Z,101865.88
2022-09-23T01:35:20.041Z,101867.81
2022-09-23T01:37:51.021Z,101862.63
2022-09-23T01:40:23.342Z,101868.13
2022-09-23T01:42:56.139Z,101858.41
2022-09-23T01:45:29.602Z,101856.81
2022-09-23T01:48:01.811Z,101856.16
2022-09-23T01:50:32.993Z,101851.81
2022-09-23T01:53:05.073Z,101851.00
2022-09-23T01:55:36.374Z,101852.03
2022-09-23T01:58:07.413Z,101852.97
2022-09-23T02:00:39.225Z,101855.00
2022-09-23T02:03:13.042Z,101848.91
2022-09-23T02:05:44.808Z,101848.97
2022-09-23T02:08:17.213Z,101845.53
2022-09-23T02:10:47.287Z,101845.63
2022-09-23T02:13:19.849Z,101842.16
2022-09-23T02:15:52.861Z,101832.50
2022-09-23T02:18:24.326Z,101832.59
2022-09-23T02:20:55.648Z,101830.03
2022-09-23T02:23:27.509Z,101835.47
2022-09-23T02:25:58.014Z,101828.38
2022-09-23T02:28:32.181Z,101826.66
2022-09-23T02:31:07.119Z,101822.25
2022-09-23T02:33:39.853Z,101818.78
2022-09-23T02:36:12.374Z,101812.56
2022-09-23T02:38:43.662Z,101807.41
2022-09-23T02:41:15.066Z,101804.78
2022-09-23T02:43:47.633Z,101807.59
2022-09-23T02:46:15.169Z,101799.63
2022-09-23T02:48:46.553Z,101805.97
2022-09-23T02:51:13.503Z,101800.66
2022-09-23T02:53:40.177Z,101791.84
2022-09-23T02:56:14.666Z,101800.84
2022-09-23T02:58:41.582Z,101793.88
2022-09-23T03:01:18.573Z,101796.56
2022-09-23T03:03:55.766Z,101796.72
2022-09-23T03:06:30.421Z,101794.16
2022-09-23T03:09:02.460Z,101792.50
2022-09-23T03:11:29.113Z,101795.19
2022-09-23T03:14:05.396Z,101788.13
2022-09-23T03:16:39.762Z,101787.34
2022-09-23T03:19:19.620Z,101790.13
2022-09-23T03:21:53.094Z,101783.34
2022-09-23T03:24:20.282Z,101781.69
2022-09-23T03:26:48.605Z,101784.50
2022-09-23T03:29:18.447Z,101781.03
2022-09-23T03:31:45.205Z,101780.28
2022-09-23T03:34:16.191Z,101779.50
2022-09-23T03:36:49.202Z,101779.59
2022-09-23T03:39:26.739Z,101777.13
2022-09-23T03:41:56.895Z,101778.94
2022-09-23T03:44:23.612Z,101773.69
2022-09-23T03:46:50.233Z,101770.22
2022-09-23T03:49:24.185Z,101769.25
2022-09-23T03:51:50.798Z,101761.31
2022-09-23T03:54:17.439Z,101766.75
2022-09-23T03:56:43.990Z,101765.06
2022-09-23T03:59:10.688Z,101763.31
2022-09-23T04:01:37.328Z,101758.91
2022-09-23T04:04:03.953Z,101769.63
2022-09-23T04:06:31.951Z,101768.78
2022-09-23T04:08:58.676Z,101754.59
2022-09-23T04:11:25.288Z,101752.88
2022-09-23T04:13:51.867Z,101752.09
2022-09-23T04:16:18.526Z,101747.72
2022-09-23T04:18:45.106Z,101741.56
2022-09-23T04:21:11.777Z,101738.13
2022-09-23T04:23:39.704Z,101739.09
2022-09-23T04:26:06.816Z,101746.34
2022-09-23T04:28:33.962Z,101738.41
2022-09-23T04:31:04.014Z,101733.16
2022-09-23T04:33:30.640Z,101734.88
2022-09-23T04:35:57.390Z,101742.06
2022-09-23T04:38:23.981Z,101733.22
2022-09-23T04:40:51.964Z,101725.31
2022-09-23T04:43:18.637Z,101731.53
2022-09-23T04:45:45.558Z,101732.38
2022-09-23T04:48:12.526Z,101730.66
2022-09-23T04:50:39.380Z,101728.94
2022-09-23T04:53:06.312Z,101727.19
2022-09-23T04:55:32.914Z,101725.47
2022-09-23T04:58:00.811Z,101724.50
2022-09-23T05:00:27.433Z,101731.69
2022-09-23T05:02:54.167Z,101732.56
2022-09-23T05:05:20.730Z,101729.00
2022-09-23T05:07:47.938Z,101720.97
2022-09-23T05:10:14.936Z,101727.19
2022-09-23T05:12:41.519Z,101731.81
2022-09-23T05:15:09.911Z,101736.13
2022-09-23T05:17:36.545Z,101734.28
2022-09-23T05:20:03.871Z,101734.28
2022-09-23T05:22:30.666Z,101728.84
2022-09-23T05:24:57.311Z,101734.09
2022-09-23T05:27:23.946Z,101736.69
2022-09-23T05:29:50.473Z,101732.06
2022-09-23T05:32:18.473Z,101727.56
2022-09-23T05:34:45.055Z,101726.63
2022-09-23T05:37:11.706Z,101728.34
2022-09-23T05:39:38.380Z,101735.25
2022-09-23T05:42:05.428Z,101738.69
2022-09-23T05:44:32.001Z,101733.16
2022-09-23T05:46:58.621Z,101733.81
2022-09-23T05:49:42.608Z,101731.78
2022-09-23T05:52:09.439Z,101725.25
2022-09-23T05:54:36.109Z,101726.78
2022-09-23T05:57:04.878Z,101725.63
2022-09-23T05:59:32.002Z,101723.50
2022-09-23T06:01:58.651Z,101727.72
2022-09-23T06:04:26.719Z,101728.28
2022-09-23T06:06:53.307Z,101723.50
2022-09-23T06:09:19.972Z,101728.56
2022-09-23T06:11:46.680Z,101725.50
2022-09-23T06:14:14.093Z,101718.78
2022-09-23T06:16:40.673Z,101722.75
2022-09-23T06:19:07.373Z,101733.97
2022-09-23T06:21:37.841Z,101731.66
2022-09-23T06:24:05.822Z,101726.63
2022-09-23T06:26:32.855Z,101726.75
2022-09-23T06:29:00.602Z,101732.38
2022-09-23T06:31:27.437Z,101732.50
2022-09-23T06:34:04.939Z,101730.81
2022-09-23T06:36:43.023Z,101728.13
2022-09-23T06:39:10.861Z,101737.94
2022-09-23T06:41:37.455Z,101732.56
2022-09-23T06:44:04.121Z,101733.41
2022-09-23T06:46:30.777Z,101732.44
2022-09-23T06:48:57.728Z,101726.94
2022-09-23T06:51:24.304Z,101732.16
2022-09-23T06:53:52.403Z,101736.34
2022-09-23T06:56:18.917Z,101724.50
2022-09-23T06:58:45.785Z,101728.78
2022-09-23T07:01:15.001Z,101726.78
2022-09-23T07:03:41.808Z,101722.94
2022-09-23T07:06:08.999Z,101721.91
2022-09-23T07:08:35.889Z,101720.97
2022-09-23T07:11:06.568Z,101721.72
2022-09-23T07:13:34.017Z,101721.63
2022-09-23T07:16:01.890Z,101723.25
2022-09-23T07:18:36.217Z,101719.72
2022-09-23T07:21:08.655Z,101714.22
2022-09-23T07:23:35.785Z,101719.59
2022-09-23T07:26:04.818Z,101719.59
2022-09-23T07:28:31.709Z,101717.00
2022-09-23T07:31:03.612Z,101717.97
2022-09-23T07:33:32.723Z,101719.81
2022-09-23T07:35:59.881Z,101712.81
2022-09-23T07:38:26.425Z,101713.63
2022-09-23T07:40:53.045Z,101715.31
2022-09-23T07:43:21.043Z,101711.59
2022-09-23T07:45:47.671Z,101707.16
2022-09-23T07:48:14.246Z,101707.22
2022-09-23T07:50:40.816Z,101709.88
2022-09-23T07:53:07.371Z,101707.25
2022-09-23T07:55:34.456Z,101707.44
2022-09-23T07:58:01.343Z,101715.63
2022-09-23T08:00:29.505Z,101713.00
2022-09-23T08:02:56.334Z,101713.06
2022-09-23T08:05:23.304Z,101705.81
2022-09-23T08:07:49.821Z,101712.03
2022-09-23T08:10:16.573Z,101709.22
2022-09-23T08:12:43.223Z,101713.72
2022-09-23T08:15:10.317Z,101709.31
2022-09-23T08:17:38.293Z,101706.78
2022-09-23T08:20:06.146Z,101702.50
2022-09-23T08:22:32.979Z,101699.00
2022-09-23T08:24:59.613Z,101699.16
2022-09-23T08:27:26.171Z,101696.59
2022-09-23T08:29:52.726Z,101692.34
2022-09-23T08:32:19.341Z,101691.66
2022-09-23T08:34:47.443Z,101686.38
2022-09-23T08:37:14.225Z,101684.81
2022-09-23T08:39:40.918Z,101685.81
2022-09-23T08:42:16.214Z,101687.81
2022-09-23T08:44:48.028Z,101684.25
2022-09-23T08:47:20.685Z,101686.09
2022-09-23T08:49:58.655Z,101674.50
2022-09-23T08:52:33.101Z,101677.22
2022-09-23T08:54:59.921Z,101673.75
2022-09-23T08:57:39.933Z,101680.31
2022-09-23T09:00:07.635Z,101677.69
2022-09-23T09:02:35.789Z,101680.56
2022-09-23T09:05:08.653Z,101677.13
2022-09-23T09:07:38.573Z,101668.22
2022-09-23T09:10:15.073Z,101676.66
2022-09-23T09:12:44.804Z,101676.59
2022-09-23T09:15:14.201Z,101669.56
2022-09-23T09:17:50.115Z,101668.94
2022-09-23T09:20:23.644Z,101669.06
2022-09-23T09:22:52.965Z,101662.88
2022-09-23T09:25:25.138Z,101659.94
2022-09-23T09:27:54.502Z,101662.47
2022-09-23T09:30:21.619Z,101659.66
2022-09-23T09:32:52.213Z,101659.44
2022-09-23T09:35:27.212Z,101660.06
2022-09-23T09:37:53.842Z,101644.66
2022-09-23T09:40:20.606Z,101641.03
2022-09-23T09:42:49.649Z,101632.91
2022-09-23T09:45:26.026Z,101635.69
2022-09-23T09:48:00.969Z,101631.16
2022-09-23T09:50:47.820Z,101634.50
2022-09-23T09:53:22.832Z,101626.38
2022-09-23T09:56:04.332Z,101616.25
2022-09-23T09:58:36.192Z,101616.66
2022-09-23T10:01:05.549Z,101611.59
2022-09-23T10:03:37.288Z,101609.44
2022-09-23T10:06:16.873Z,101605.22
2022-09-23T10:09:02.263Z,101604.94
2022-09-23T10:11:29.801Z,101604.66
2022-09-23T10:14:10.066Z,101606.19
2022-09-23T10:16:36.873Z,101607.06
2022-09-23T10:19:11.265Z,101601.13
2022-09-23T10:21:39.321Z,101596.34
2022-09-23T10:24:07.781Z,101595.50
2022-09-23T10:26:42.040Z,101593.47
2022-09-23T10:29:23.361Z,101589.38
2022-09-23T10:31:50.150Z,101596.53
2022-09-23T10:34:23.577Z,101592.78
2022-09-23T10:36:55.709Z,101585.09
2022-09-23T10:39:22.345Z,101582.19
2022-09-23T10:42:03.622Z,101578.41
2022-09-23T10:44:40.623Z,101575.31
2022-09-23T10:47:15.556Z,101579.88
2022-09-23T10:50:03.340Z,101577.31
2022-09-23T10:52:44.691Z,101578.66
2022-09-23T10:55:34.022Z,101576.09
2022-09-23T10:58:22.570Z,101575.19
2022-09-23T11:01:02.255Z,101572.41
2022-09-23T11:03:55.223Z,101565.88
2022-09-23T11:06:27.077Z,101556.22
2022-09-23T11:09:09.500Z,101561.16
2022-09-23T11:11:48.555Z,101554.03
2022-09-23T11:14:44.024Z,101559.09
2022-09-23T11:17:30.493Z,101548.75
2022-09-23T11:20:29.383Z,101546.31
2022-09-23T11:23:17.492Z,101537.56
2022-09-23T11:25:52.094Z,101536.69
2022-09-23T11:28:41.281Z,101538.97
2022-09-23T11:31:19.322Z,101526.97
2022-09-23T11:33:59.054Z,101520.25
2022-09-23T11:36:32.436Z,101518.69
2022-09-23T11:39:06.056Z,101515.38
2022-09-23T11:41:40.363Z,101516.16
2022-09-23T11:44:14.802Z,101513.72
2022-09-23T11:46:46.741Z,101504.72
2022-09-23T11:49:16.503Z,101505.22
2022-09-23T11:51:56.140Z,101496.06
2022-09-23T11:54:28.593Z,101499.41
2022-09-23T11:57:01.221Z,101494.31
2022-09-23T11:59:40.871Z,101478.13
2022-09-23T12:02:21.407Z,101482.22
2022-09-23T12:04:58.475Z,101484.56
2022-09-23T12:07:31.127Z,101480.56
2022-09-23T12:10:03.739Z,101476.97
2022-09-23T12:12:39.542Z,101467.44
2022-09-23T12:15:13.598Z,101467.06
2022-09-23T12:17:56.695Z,101463.56
2022-09-23T12:20:41.785Z,101463.06
2022-09-23T12:23:25.516Z,101455.59
2022-09-23T12:25:53.673Z,101455.38
2022-09-23T12:28:26.615Z,101456.03
2022-09-23T12:30:56.365Z,101459.53
2022-09-23T12:33:25.680Z,101455.41
2022-09-23T12:35:54.091Z,101449.44
2022-09-23T12:38:25.737Z,101449.06
2022-09-23T12:40:54.734Z,101437.44
2022-09-23T12:43:31.636Z,101441.22
2022-09-23T12:52:24.796Z,101428.13
2022-09-23T12:54:55.458Z,101428.41
2022-09-23T12:57:40.360Z,101428.22
2022-09-23T13:00:25.679Z,101428.03
2022-09-23T13:02:56.410Z,101424.06
2022-09-23T13:05:25.180Z,101417.41
2022-09-23T13:07:59.576Z,101408.38
2022-09-23T13:10:30.873Z,101414.56
2022-09-23T13:12:59.501Z,101409.16
2022-09-23T13:15:31.996Z,101398.38
2022-09-23T13:18:40.638Z,101402.06
2022-09-23T13:21:17.529Z,101392.13
2022-09-23T13:24:16.721Z,101393.66
2022-09-23T13:26:45.744Z,101388.78
2022-09-23T13:29:19.227Z,101388.19
2022-09-23T13:31:47.457Z,101380.41
2022-09-23T13:34:19.956Z,101385.25
2022-09-23T13:36:48.350Z,101379.50
2022-09-23T13:39:15.673Z,101378.38
2022-09-23T13:41:45.306Z,101369.44
2022-09-23T13:44:17.271Z,101362.03
2022-09-23T13:46:49.451Z,101363.25
2022-09-23T13:49:22.492Z,101355.88
2022-09-23T13:51:50.815Z,101354.84
2022-09-23T13:54:27.861Z,101348.72
2022-09-23T13:56:54.957Z,101351.03
2022-09-23T13:59:25.510Z,101347.25
2022-09-23T14:02:04.890Z,101346.84
2022-09-23T14:04:31.748Z,101347.84
2022-09-23T14:06:58.603Z,101339.56
2022-09-23T14:09:27.892Z,101334.41
2022-09-23T14:11:56.457Z,101347.44
2022-09-23T14:14:23.491Z,101334.97
2022-09-23T14:16:51.638Z,101340.28
2022-09-23T14:19:22.037Z,101335.16
2022-09-23T14:21:49.851Z,101333.69
2022-09-23T14:24:19.216Z,101333.59
2022-09-23T14:26:48.776Z,101326.44
2022-09-23T14:29:17.726Z,101318.84
2022-09-23T14:31:51.428Z,101320.94
2022-09-23T14:34:49.872Z,101317.94
2022-09-23T14:37:26.755Z,101318.69
2022-09-23T14:39:57.593Z,101319.88
2022-09-23T14:42:24.526Z,101310.75
2022-09-23T14:44:51.397Z,101303.50
2022-09-23T14:47:18.276Z,101307.88
2022-09-23T14:49:49.485Z,101307.81
2022-09-23T14:52:17.269Z,101311.13
2022-09-23T14:54:44.155Z,101310.69
2022-09-23T14:57:28.406Z,101303.03
2022-09-23T14:59:59.110Z,101300.03
2022-09-23T15:02:34.973Z,101298.72
2022-09-23T15:05:19.206Z,101298.47
2022-09-23T15:07:52.559Z,101296.09
2022-09-23T15:10:23.155Z,101297.53
2022-09-23T15:12:51.596Z,101298.97
2022-09-23T15:15:19.112Z,101295.78
2022-09-23T15:17:46.587Z,101292.59
2022-09-23T15:20:23.479Z,101291.28
2022-09-23T15:22:52.157Z,101290.09
2022-09-23T15:25:21.156Z,101295.13
2022-09-23T15:27:59.605Z,101293.16
2022-09-23T15:30:26.603Z,101286.34
2022-09-23T15:32:53.234Z,101290.53
2022-09-23T15:35:23.849Z,101281.63
2022-09-23T15:37:50.755Z,101289.59
2022-09-23T15:40:35.794Z,101289.97
2022-09-23T15:43:17.992Z,101284.88
2022-09-23T15:45:48.850Z,101278.09
2022-09-23T15:48:17.773Z,101275.06
2022-09-23T15:50:46.002Z,101288.13
2022-09-23T15:53:15.591Z,101275.84
2022-09-23T15:55:42.382Z,101279.97
2022-09-23T15:58:09.080Z,101281.22
2022-09-23T16:00:36.535Z,101274.59
2022-09-23T16:03:04.611Z,101277.56
2022-09-23T16:05:35.448Z,101277.91
2022-09-23T16:08:08.728Z,101276.41
2022-09-23T16:10:37.088Z,101274.06
2022-09-23T16:13:06.329Z,101273.56
2022-09-23T16:15:33.853Z,101277.53
2022-09-23T16:18:00.930Z,101277.06
2022-09-23T16:20:29.891Z,101277.63
2022-09-23T16:22:59.585Z,101276.09
2022-09-23T16:25:29.777Z,101270.38
2022-09-23T16:27:57.566Z,101269.00
2022-09-23T16:30:26.375Z,101267.88
2022-09-23T16:32:55.250Z,101267.56
2022-09-23T16:35:23.810Z,101265.56
2022-09-23T16:37:51.734Z,101264.63
2022-09-23T16:40:20.500Z,101261.81
2022-09-23T16:42:49.479Z,101267.31
2022-09-23T16:45:17.507Z,101267.59
2022-09-23T16:47:45.108Z,101267.00
2022-09-23T16:50:17.089Z,101264.66
2022-09-23T16:52:44.601Z,101267.69
2022-09-23T16:55:13.217Z,101264.31
2022-09-23T16:57:40.716Z,101255.66
2022-09-23T17:00:13.013Z,101262.56
2022-09-23T17:02:40.000Z,101258.53
2022-09-23T17:05:07.581Z,101248.69
2022-09-23T17:07:34.500Z,101249.09
2022-09-23T17:10:01.474Z,101249.47
2022-09-23T17:12:31.036Z,101249.72
2022-09-23T17:14:57.757Z,101254.69
2022-09-23T17:17:26.210Z,101248.59
2022-09-23T17:19:53.047Z,101245.22
2022-09-23T17:22:20.043Z,101250.84
2022-09-23T17:24:46.828Z,101239.28
2022-09-23T17:27:14.896Z,101244.22
2022-09-23T17:29:41.733Z,101247.97
2022-09-23T17:32:08.602Z,101253.44
2022-09-23T17:34:36.655Z,101253.63
2022-09-23T17:37:03.693Z,101253.13
2022-09-23T17:39:30.502Z,101250.41
2022-09-23T17:41:58.973Z,101248.84
2022-09-23T17:44:25.784Z,101250.72
2022-09-23T17:46:52.949Z,101242.72
2022-09-23T17:49:19.789Z,101250.69
2022-09-23T17:51:48.049Z,101251.34
2022-09-23T17:54:14.858Z,101251.03
2022-09-23T17:56:41.933Z,101249.78
2022-09-23T17:59:10.530Z,101251.28
2022-09-23T18:01:37.497Z,101245.47
2022-09-23T18:04:04.704Z,101253.13
2022-09-23T18:06:32.683Z,101258.06
2022-09-23T18:09:01.577Z,101254.63
2022-09-23T18:11:31.167Z,101262.47
2022-09-23T18:13:59.660Z,101256.31
2022-09-23T18:16:29.226Z,101262.09
2022-09-23T18:18:57.416Z,101264.31
2022-09-23T18:21:25.999Z,101259.16
2022-09-23T18:23:52.956Z,101265.94
2022-09-23T18:26:23.492Z,101257.28
2022-09-23T18:28:51.470Z,101255.91
2022-09-23T18:31:18.921Z,101257.06
2022-09-23T18:33:49.360Z,101251.09
2022-09-23T18:36:16.300Z,101255.16
2022-09-23T18:38:43.174Z,101244.47
2022-09-23T18:41:09.808Z,101254.78
2022-09-23T18:43:41.544Z,101251.53
2022-09-23T18:46:12.989Z,101251.03
2022-09-23T18:48:40.257Z,101256.78
2022-09-23T18:51:08.116Z,101253.56
2022-09-23T18:53:35.014Z,101253.00
2022-09-23T18:56:05.445Z,101245.16
2022-09-23T18:58:32.427Z,101248.38
2022-09-23T19:01:05.280Z,101249.72
2022-09-23T19:03:32.183Z,101247.47
2022-09-23T19:06:06.097Z,101247.09
2022-09-23T19:08:33.423Z,101251.13
2022-09-23T19:11:01.815Z,101253.47
2022-09-23T19:13:29.363Z,101247.50
2022-09-23T19:16:00.869Z,101249.84
2022-09-23T19:18:29.905Z,101247.56
2022-09-23T19:20:57.470Z,101242.63
2022-09-23T19:23:24.128Z,101246.66
2022-09-23T19:25:51.032Z,101245.13
2022-09-23T19:28:17.921Z,101239.16
2022-09-23T19:30:44.824Z,101246.78
2022-09-23T19:33:11.934Z,101239.78
2022-09-23T19:35:47.257Z,101240.97
2022-09-23T19:38:19.198Z,101243.09
2022-09-23T19:40:49.756Z,101243.44
2022-09-23T19:43:16.886Z,101234.75
2022-09-23T19:45:43.871Z,101236.75
2022-09-23T19:48:11.036Z,101234.38
2022-09-23T19:50:38.920Z,101240.78
2022-09-23T19:53:07.627Z,101228.53
2022-09-23T19:55:35.422Z,101235.00
2022-09-23T19:58:02.622Z,101239.72
2022-09-23T20:00:29.594Z,101239.88
2022-09-23T20:02:56.898Z,101236.63
2022-09-23T20:05:23.808Z,101233.38
2022-09-23T20:07:50.560Z,101233.50
2022-09-23T20:10:18.677Z,101236.53
2022-09-23T20:12:45.280Z,101235.16
2022-09-23T20:15:12.050Z,101237.31
2022-09-23T20:17:38.688Z,101232.91
2022-09-23T20:20:05.931Z,101230.50
2022-09-23T20:22:33.654Z,101233.34
2022-09-23T20:25:00.597Z,101229.97
2022-09-23T20:27:29.217Z,101234.69
2022-09-23T20:29:55.793Z,101223.09
2022-09-23T20:32:22.495Z,101226.00
2022-09-23T20:34:49.211Z,101228.84
2022-09-23T20:37:16.989Z,101226.47
2022-09-23T20:39:44.483Z,101218.47
2022-09-23T20:42:11.592Z,101216.59
2022-09-23T20:44:39.680Z,101216.75
2022-09-23T20:47:06.900Z,101219.63
2022-09-23T20:49:33.511Z,101215.53
2022-09-23T20:52:00.265Z,101222.63
2022-09-23T20:54:26.863Z,101210.25
2022-09-23T20:56:53.485Z,101212.28
2022-09-23T20:59:20.165Z,101215.97
2022-09-23T21:01:48.246Z,101215.13
2022-09-23T21:04:15.142Z,101208.97
2022-09-23T21:06:41.746Z,101206.44
2022-09-23T21:09:08.372Z,101204.88
2022-09-23T21:11:34.882Z,101202.16
2022-09-23T21:14:02.131Z,101208.59
2022-09-23T21:16:29.488Z,101199.63
2022-09-23T21:18:59.004Z,101201.47
2022-09-23T21:21:26.326Z,101204.19
2022-09-23T21:23:52.845Z,101198.06
2022-09-23T21:26:21.318Z,101198.06
2022-09-23T21:28:49.823Z,101191.78
2022-09-23T21:31:17.967Z,101192.81
2022-09-23T21:33:44.630Z,101191.94
2022-09-23T21:36:12.487Z,101196.34
2022-09-23T21:38:39.363Z,101192.81
2022-09-23T21:41:09.833Z,101187.38
2022-09-23T21:43:38.410Z,101185.66
2022-09-23T21:46:06.762Z,101194.78
2022-09-23T21:48:34.808Z,101188.50
2022-09-23T21:51:03.741Z,101185.13
2022-09-23T21:53:33.656Z,101191.38
2022-09-23T21:56:01.725Z,101189.69
2022-09-23T21:58:28.873Z,101189.69
2022-09-23T22:00:55.474Z,101190.69
2022-09-23T22:03:22.337Z,101192.53
2022-09-23T22:05:58.927Z,101187.97
2022-09-23T22:08:25.498Z,101185.41
2022-09-23T22:10:53.513Z,101179.13
2022-09-23T22:13:20.236Z,101185.56
2022-09-23T22:15:46.860Z,101187.44
2022-09-23T22:18:13.447Z,101183.00
2022-09-23T22:20:40.158Z,101185.72
2022-09-23T22:23:06.783Z,101182.16
2022-09-23T22:25:33.336Z,101180.28
2022-09-23T22:28:01.731Z,101178.59
2022-09-23T22:30:28.311Z,101176.88
2022-09-23T22:32:55.308Z,101169.75
2022-09-23T22:35:22.031Z,101168.06
2022-09-23T22:37:48.602Z,101167.19
2022-09-23T22:40:15.834Z,101169.03
2022-09-23T22:42:43.504Z,101163.63
2022-09-23T22:45:11.999Z,101157.34
2022-09-23T22:47:40.695Z,101155.81
2022-09-23T22:50:09.090Z,101149.53
2022-09-23T22:52:35.677Z,101154.09
2022-09-23T22:55:02.331Z,101151.38
2022-09-23T22:57:31.596Z,101157.81
2022-09-23T22:59:58.183Z,101152.56
2022-09-23T23:02:26.272Z,101164.25
2022-09-23T23:04:52.836Z,101155.28
2022-09-23T23:07:20.675Z,101160.69
2022-09-23T23:09:47.549Z,101158.84
2022-09-23T23:12:14.249Z,101158.97
2022-09-23T23:14:40.895Z,101163.53
2022-09-23T23:17:07.500Z,101148.25
2022-09-23T23:19:36.192Z,101150.94
2022-09-23T23:22:03.021Z,101154.66
2022-09-23T23:24:29.660Z,101142.13
2022-09-23T23:26:56.407Z,101142.28
2022-09-23T23:29:23.154Z,101143.13
2022-09-23T23:31:50.436Z,101141.28
2022-09-23T23:34:19.760Z,101138.56
2022-09-23T23:36:48.714Z,101140.41
2022-09-23T23:39:15.284Z,101136.00
2022-09-23T23:41:42.154Z,101136.00
2022-09-23T23:44:12.183Z,101126.31
2022-09-23T23:46:38.968Z,101128.19
2022-09-23T23:49:05.653Z,101131.88
2022-09-23T23:51:32.231Z,101130.19
2022-09-23T23:54:00.332Z,101130.19
2022-09-23T23:56:27.447Z,101132.03
2022-09-23T23:58:55.378Z,101128.50
